Tiempo atmosférico en la estación meteorológica de Abla, Almería (885 m.)



Fecha
DESCASC
Temp. máxima en grados centígrados (hora)
DESCASC
Temp. mínima en grados centígrados (hora)
DESCASC
Temp. media en grados centígrados
DESCASC
Racha de viento máxima en m/sg (hora)
DESCASC
Velocidad máxima media en intervalos de 10 minutos(hora)
DESCASC
Precipitaciones diarias en mm
DESCASC
Precipitaciones de 00:00 a 06:00 en mm
DESCASC
Precipitaciones de 06:00 a 12:00 en mm
DESCASC
Precipitaciones de 12:00 a 18:00 en mm
DESCASC
Precipitaciones de 18:00 a 24:00 en mm
DESCASC
15-07-2018 35.9 (15:00) 19.9 (08:00) 27.9 11.11 (17:30) 4.72 (18:10) -- -- -- -- --
14-07-2018 36.4 (18:10) 17.2 (07:30) 26.8 9.17 (15:20) 4.44 (15:20) -- -- -- -- --
13-07-2018 28.5 (16:00) 18.9 (06:30) 23.7 10.28 (19:30) 5.28 (19:10) -- -- -- -- --
12-07-2018 32.5 (13:10) 19.5 (00:00) 26 12.22 (15:40) 6.11 (15:40) -- -- -- -- --
11-07-2018 33.7 (19:30) 20.9 (00:00) 27.3 10 (13:40) 5 (13:00) -- -- -- -- --
10-07-2018 33.2 (11:30) 21.4 (00:00) 27.3 10 (14:40) 5 (16:40) -- -- -- -- --
09-07-2018 31.6 (15:10) 18.2 (00:00) 24.9 12.22 (17:20) 5.83 (15:30) -- -- -- -- --
08-07-2018 32.1 (15:20) 19.4 (07:00) 25.7 10 (19:00) 5.56 (18:10) -- -- -- -- --
07-07-2018 31.9 (15:30) 17.4 (00:00) 24.6 10.83 (15:10) 5 (20:30) -- -- -- -- --
06-07-2018 29.9 (16:10) 18.2 (00:00) 24.1 11.94 (14:10) 5.83 (18:20) -- -- -- -- --
05-07-2018 32.4 (16:00) 17.6 (07:20) 25 10.28 (18:10) 4.44 (18:00) -- -- -- -- --
04-07-2018 35.6 (16:30) 19.6 (07:10) 27.6 7.5 (21:00) 3.33 (23:00) -- -- -- -- --
03-07-2018 34.4 (15:50) 17.9 (07:20) 26.2 10.28 (18:20) 5 (18:20) -- -- -- -- --
02-07-2018 31.4 (14:50) 15.7 (07:20) 23.5 8.61 (18:20) 4.17 (17:00) -- -- -- -- --
01-07-2018 31.2 (15:40) 18 (00:00) 24.6 11.11 (17:50) 5.83 (17:50) -- -- -- -- --
30-06-2018 27.9 (14:40) 18.2 (06:50) 23.1 10.83 (17:50) 5.56 (00:20) -- -- -- -- --
29-06-2018 29 (16:20) 19.4 (00:00) 24.2 12.22 (17:40) 6.11 (18:20) -- -- -- -- --
28-06-2018 31.1 (16:00) 19.6 (00:00) 25.4 10 (14:40) 5.28 (15:30) -- -- -- -- --
27-06-2018 30.2 (16:00) 18.2 (00:00) 24.2 10.83 (17:30) 5.56 (17:30) -- -- -- -- --
26-06-2018 30.4 (15:40) 17.5 (00:00) 23.9 12.78 (14:50) 6.67 (16:00) -- -- -- -- --
25-06-2018 30.5 (14:10) 18 (00:00) 24.3 12.5 (15:20) 6.11 (15:00) -- -- -- -- --
24-06-2018 33.8 (17:20) 18.4 (00:00) 26.1 11.94 (13:50) 6.11 (14:20) -- -- -- -- --
23-06-2018 31.6 (15:40) 17.3 (00:00) 24.4 11.11 (15:40) 5 (17:40) -- -- -- -- --
22-06-2018 29.9 (15:10) 16 (05:30) 22.9 10.83 (11:50) 4.72 (11:50) -- -- -- -- --
21-06-2018 29.5 (14:20) 15.1 (00:00) 22.3 10 (15:40) 4.72 (17:30) -- -- -- -- --
20-06-2018 29 (16:10) 14.1 (00:00) 21.6 10.83 (16:20) 4.72 (14:20) -- -- -- -- --
19-06-2018 27.3 (14:20) 16.3 (00:00) 21.8 11.11 (15:10) 4.72 (13:30) -- -- -- -- --
18-06-2018 30.9 (15:30) 18.1 (00:00) 24.5 10.28 (19:20) 5.28 (20:10) -- -- -- -- --
17-06-2018 30.1 (15:20) 16.4 (00:00) 23.3 10.56 (19:10) 5.83 (18:40) -- -- -- -- --

Gráficas

Temp. máximas Temp. mínimas Temp. medias Precipitaciones Rachas de viento máximas Velocidades máximas media en intervalos de 10 minutos

Datos horarios

Fecha y hora oficial Temperatura (ºC) Velocidad del viento (km/h) Dirección del viento Racha (km/h) Dirección de racha Precipitación (mm) Presión (hPa) Tendencia (hPa) Humedad (%)
2018-07-16 23:00:00 23.7 4 Noroeste 13 Noroeste -- -- -- 38
2018-07-16 22:00:00 24.9 4 Nordeste 18 Este -- -- -- 36
2018-07-16 21:00:00 25.9 9 Nordeste 24 Este -- -- -- 34
2018-07-16 20:00:00 27 12 Nordeste 30 Nordeste -- -- -- 34
2018-07-16 19:00:00 28.5 13 Nordeste 31 Nordeste -- -- -- 34
2018-07-16 18:00:00 29.3 14 Nordeste 30 Nordeste -- -- -- 32
2018-07-16 17:00:00 30.5 12 Nordeste 25 Nordeste -- -- -- 31
2018-07-16 16:00:00 31.1 12 Nordeste 23 Este -- -- -- 31
2018-07-16 15:00:00 31 3 Norte 17 Sur -- -- -- 31
2018-07-16 14:00:00 29.4 4 Noroeste 18 Norte -- -- -- 32
2018-07-16 13:00:00 29.4 5 Norte 19 Oeste -- -- -- 31
2018-07-16 12:00:00 26.4 10 Noroeste 23 Noroeste -- -- -- 38
2018-07-16 11:00:00 24.9 7 Noroeste 24 Noroeste -- -- -- 43
2018-07-16 10:00:00 22.4 8 Noroeste 21 Norte -- -- -- 52
2018-07-16 09:00:00 21.3 9 Noroeste 21 Norte -- -- -- 56
2018-07-16 08:00:00 19 9 Sur 22 Sur -- -- -- 61
2018-07-16 07:00:00 17.6 8 Sur 22 Sur -- -- -- 57
2018-07-16 06:00:00 17.6 8 Sur 19 Sur -- -- -- 53
2018-07-16 05:00:00 17.5 9 Sur 18 Noroeste -- -- -- 51
2018-07-16 04:00:00 18.5 8 Noroeste 19 Norte -- -- -- 47
2018-07-16 03:00:00 19.2 8 Noroeste 26 Norte -- -- -- 47
2018-07-16 02:00:00 19.7 6 Norte 26 Noroeste -- -- -- 48
2018-07-16 01:00:00 20.5 8 Noroeste 21 Noroeste -- -- -- 46
2018-07-16 00:00:00 21.5 9 Norte 25 Noroeste -- -- -- 44
2018-07-15 23:00:00 23.2 12 Noroeste 26 Norte -- -- -- 42
2018-07-15 22:00:00 24.7 10 Noroeste 24 Noroeste -- -- -- 38
2018-07-15 21:00:00 26.4 8 Noroeste 24 Noroeste -- -- -- 35
2018-07-15 20:00:00 28.8 10 Noroeste 26 Noroeste -- -- -- 31
2018-07-15 19:00:00 32 10 Noroeste 39 Noroeste -- -- -- 25
2018-07-15 18:00:00 33.2 13 Noroeste 40 Norte -- -- -- 22
2018-07-15 17:00:00 33.4 11 Noroeste 36 Noroeste -- -- -- 24
2018-07-15 16:00:00 34.6 6 Noroeste 28 Noroeste -- -- -- 25
2018-07-15 15:00:00 35.6 4 Norte 22 Nordeste -- -- -- 26
2018-07-15 14:00:00 34.4 7 Noroeste 27 Este -- -- -- 27
2018-07-15 13:00:00 31.9 10 Nordeste 22 Este -- -- -- 31
2018-07-15 12:00:00 30 3 Norte 13 Este -- -- -- 32
2018-07-15 11:00:00 28.6 3 Norte 9 Nordeste -- -- -- 37
2018-07-15 10:00:00 26.4 2 Norte 10 Norte -- -- -- 44
2018-07-15 09:00:00 22.5 4 Norte 14 Norte -- -- -- 52
2018-07-15 08:00:00 20.3 7 Noroeste 18 Norte -- -- -- 55
2018-07-15 07:00:00 20.6 5 Norte 15 Noroeste -- -- -- 52
2018-07-15 06:00:00 21.4 4 Norte 14 Norte -- -- -- 46
2018-07-15 05:00:00 21.9 4 Norte 13 Noroeste -- -- -- 42
2018-07-15 04:00:00 22.8 4 Noroeste 12 Noroeste -- -- -- 39
2018-07-15 03:00:00 23.9 3 Noroeste 9 Noroeste -- -- -- 39
2018-07-15 02:00:00 23.6 3 Norte 10 Norte -- -- -- 41
2018-07-15 01:00:00 23.7 3 Noroeste 10 Oeste -- -- -- 45
2018-07-15 00:00:00 23.2 3 Noroeste 12 Oeste -- -- -- 48
2018-07-14 23:00:00 23.8 3 Norte 17 Nordeste -- -- -- 46
2018-07-14 22:00:00 24.2 7 Nordeste 26 Este -- -- -- 44
2018-07-14 21:00:00 27 9 Nordeste 24 Norte -- -- -- 36
2018-07-14 20:00:00 32.3 8 Noroeste 26 Norte -- -- -- 25
2018-07-14 19:00:00 34.2 5 Noroeste 23 Noroeste -- -- -- 23
2018-07-14 18:00:00 34.9 3 Norte 29 Nordeste -- -- -- 28
2018-07-14 17:00:00 32.1 13 Nordeste 32 Nordeste -- -- -- 36
2018-07-14 16:00:00 32.1 14 Nordeste 33 Este -- -- -- 36
2018-07-14 15:00:00 32.2 12 Nordeste 31 Este -- -- -- 35
2018-07-14 14:00:00 30.9 14 Este 31 Este -- -- -- 36
2018-07-14 13:00:00 30.8 12 Nordeste 27 Este -- -- -- 35
2018-07-14 12:00:00 28.8 12 Nordeste 23 Este -- -- -- 41
2018-07-14 11:00:00 27.7 3 Nordeste 9 Nordeste -- -- -- 45
2018-07-14 10:00:00 24.7 2 Norte 8 Norte -- -- -- 51
2018-07-14 09:00:00 21.6 3 Noroeste 9 Noroeste -- -- -- 55
2018-07-14 08:00:00 19.6 0 Calma 14 Noroeste -- -- -- 57
2018-07-14 07:00:00 18.6 3 Noroeste 13 Noroeste -- -- -- 56
2018-07-14 06:00:00 19.6 2 Noroeste 15 Oeste -- -- -- 61
2018-07-14 05:00:00 19.5 3 Noroeste 11 Oeste -- -- -- 67
2018-07-14 04:00:00 19.6 3 Noroeste 14 Norte -- -- -- 69
2018-07-14 03:00:00 20.3 3 Noroeste 12 Noroeste -- -- -- 71
2018-07-14 02:00:00 20.6 0 Calma 5 Norte -- -- -- 81
2018-07-14 01:00:00 21.2 0 Calma 6 Este -- -- -- 79
2018-07-14 00:00:00 21.4 3 Nordeste 11 Este -- -- -- 78
2018-07-13 23:00:00 22 4 Nordeste 12 Este -- -- -- 75
2018-07-13 22:00:00 22.8 7 Nordeste 22 Este -- -- -- 72
2018-07-13 21:00:00 23.5 12 Este 33 Nordeste -- -- -- 69
2018-07-13 20:00:00 24.3 18 Este 37 Nordeste -- -- -- 65
2018-07-13 19:00:00 26.2 16 Nordeste 35 Nordeste -- -- -- 59
2018-07-13 18:00:00 27.4 13 Este 35 Este -- -- -- 54
2018-07-13 17:00:00 27.8 15 Este 33 Nordeste -- -- -- 53
2018-07-13 16:00:00 27.7 16 Este 34 Nordeste -- -- -- 52
2018-07-13 15:00:00 28.3 17 Nordeste 33 Nordeste -- -- -- 50
2018-07-13 14:00:00 27.7 15 Nordeste 32 Este -- -- -- 52
2018-07-13 13:00:00 26.2 17 Este 31 Nordeste -- -- -- 56
2018-07-13 12:00:00 26.2 14 Nordeste 30 Este -- -- -- 55
2018-07-13 11:00:00 24.6 12 Nordeste 24 Este -- -- -- 53
2018-07-13 10:00:00 24.3 6 Este 13 Este -- -- -- 59
2018-07-13 09:00:00 22.4 0 Calma 8 Norte -- -- -- 67
2018-07-13 08:00:00 20.3 0 Calma 7 Norte -- -- -- 71
2018-07-13 07:00:00 19.9 0 Calma 9 Oeste -- -- -- 70
2018-07-13 06:00:00 20 2 Norte 8 Oeste -- -- -- 78
2018-07-13 05:00:00 19.6 3 Noroeste 6 Oeste -- -- -- 79
2018-07-13 04:00:00 19.8 2 Norte 7 Noroeste -- -- -- 76
2018-07-13 03:00:00 20.3 0 Calma 5 Norte -- -- -- 77
2018-07-13 02:00:00 20.6 2 Norte 8 Oeste -- -- -- 78
2018-07-13 01:00:00 20.8 3 Norte 6 Noroeste -- -- -- 79
2018-07-13 00:00:00 21 4 Nordeste 16 Este -- -- -- 78
2018-07-12 23:00:00 21.4 8 Este 24 Este -- -- -- 76
2018-07-12 22:00:00 22.5 14 Nordeste 27 Este -- -- -- 69
2018-07-12 21:00:00 24.9 12 Este 28 Este -- -- -- 57
2018-07-12 20:00:00 25.5 13 Nordeste 32 Este -- -- -- 53
2018-07-12 19:00:00 27 15 Nordeste 40 Nordeste -- -- -- 49
2018-07-12 18:00:00 28.5 15 Nordeste 40 Este -- -- -- 46
2018-07-12 17:00:00 29.5 19 Nordeste 40 Nordeste -- -- -- 44
2018-07-12 16:00:00 30 19 Nordeste 44 Este -- -- -- 40
2018-07-12 15:00:00 30.6 15 Este 34 Nordeste -- -- -- 38
2018-07-12 14:00:00 30.8 15 Nordeste 35 Este -- -- -- 31
2018-07-12 13:00:00 31 13 Nordeste 32 Este -- -- -- 31
2018-07-12 12:00:00 29.7 10 Este 24 Este -- -- -- 34
2018-07-12 11:00:00 28.3 7 Nordeste 15 Este -- -- -- 32
2018-07-12 10:00:00 26.8 2 Nordeste 9 Norte -- -- -- 34
2018-07-12 09:00:00 24 3 Nordeste 11 Noroeste -- -- -- 37
2018-07-12 08:00:00 21.6 6 Noroeste 13 Noroeste -- -- -- 38
2018-07-12 07:00:00 19.7 5 Noroeste 16 Noroeste -- -- -- 40
2018-07-12 06:00:00 20 7 Noroeste 17 Noroeste -- -- -- 40
2018-07-12 05:00:00 20 8 Noroeste 18 Oeste -- -- -- 38
2018-07-12 04:00:00 20.9 10 Oeste 16 Oeste -- -- -- 38
2018-07-12 03:00:00 23 6 Noroeste 18 Oeste -- -- -- 38
2018-07-12 02:00:00 23.5 5 Noroeste 13 Oeste -- -- -- 38
2018-07-12 01:00:00 24.7 3 Noroeste 9 Noroeste -- -- -- 37
2018-07-12 00:00:00 25.6 4 Norte 14 Noroeste -- -- -- 38
2018-07-11 23:00:00 27.1 6 Noroeste 12 Noroeste -- -- -- 36
2018-07-11 22:00:00 28.6 6 Noroeste 14 Norte -- -- -- 34
2018-07-11 21:00:00 30.6 6 Noroeste 16 Noroeste -- -- -- 30
2018-07-11 20:00:00 32.2 6 Norte 13 Noroeste -- -- -- 31
2018-07-11 19:00:00 32.7 8 Nordeste 27 Nordeste -- -- -- 35
2018-07-11 18:00:00 31.9 13 Nordeste 29 Este -- -- -- 36
2018-07-11 17:00:00 32.6 12 Nordeste 27 Este -- -- -- 35
2018-07-11 16:00:00 32.6 14 Nordeste 31 Nordeste -- -- -- 32
2018-07-11 15:00:00 33 12 Nordeste 30 Este -- -- -- 31
2018-07-11 14:00:00 32.3 15 Nordeste 36 Este -- -- -- 29
2018-07-11 13:00:00 31.1 18 Este 32 Este -- -- -- 31
2018-07-11 12:00:00 31 16 Nordeste 28 Este -- -- -- 31
2018-07-11 11:00:00 30.6 5 Nordeste 12 Nordeste -- -- -- 30
2018-07-11 10:00:00 28.7 3 Norte 10 Nordeste -- -- -- 35
2018-07-11 09:00:00 25.9 4 Norte 15 Norte -- -- -- 38
2018-07-11 08:00:00 22.6 7 Noroeste 15 Oeste -- -- -- 42
2018-07-11 07:00:00 21.2 6 Noroeste 18 Oeste -- -- -- 42
2018-07-11 06:00:00 21.5 8 Noroeste 17 Noroeste -- -- -- 42
2018-07-11 05:00:00 22.9 8 Noroeste 16 Norte -- -- -- 41
2018-07-11 04:00:00 24 4 Noroeste 14 Noroeste -- -- -- 39
2018-07-11 03:00:00 24.8 4 Noroeste 16 Norte -- -- -- 38
2018-07-11 02:00:00 24.6 6 Norte 16 Noroeste -- -- -- 38
2018-07-11 01:00:00 25.4 4 Noroeste 13 Noroeste -- -- -- 38
2018-07-11 00:00:00 26.7 3 Norte 18 Noroeste -- -- -- 36
2018-07-10 23:00:00 27.7 5 Norte 16 Nordeste -- -- -- 36
2018-07-10 22:00:00 28.9 8 Noroeste 18 Noroeste -- -- -- 38
2018-07-10 21:00:00 28.4 2 Nordeste 12 Nordeste -- -- -- 45
2018-07-10 20:00:00 29.3 6 Este 27 Nordeste -- -- -- 42
2018-07-10 19:00:00 30.1 12 Nordeste 30 Este -- -- -- 41
2018-07-10 18:00:00 30.9 15 Nordeste 35 Este -- -- -- 40
2018-07-10 17:00:00 31.3 18 Nordeste 36 Este -- -- -- 40
2018-07-10 16:00:00 31.3 18 Nordeste 36 Este -- -- -- 37
2018-07-10 15:00:00 32.3 17 Nordeste 36 Este -- -- -- 35
2018-07-10 14:00:00 32.5 15 Nordeste 29 Nordeste -- -- -- 33
2018-07-10 13:00:00 32.7 16 Nordeste 30 Este -- -- -- 33
2018-07-10 12:00:00 32.3 10 Nordeste 23 Este -- -- -- 33
2018-07-10 11:00:00 32.2 3 Nordeste 10 Nordeste -- -- -- 34
2018-07-10 10:00:00 30.6 4 Norte 10 Norte -- -- -- 36
2018-07-10 09:00:00 27.9 3 Norte 14 Noroeste -- -- -- 42
2018-07-10 08:00:00 23.7 8 Noroeste 15 Norte -- -- -- 45
2018-07-10 07:00:00 21.6 5 Noroeste 13 Oeste -- -- -- 47
2018-07-10 06:00:00 22.5 6 Noroeste 16 Oeste -- -- -- 45
2018-07-10 05:00:00 23.8 6 Norte 15 Norte -- -- -- 44
2018-07-10 04:00:00 23.8 5 Oeste 14 Oeste -- -- -- 43
2018-07-10 03:00:00 24.5 5 Noroeste 18 Oeste -- -- -- 43
2018-07-10 02:00:00 23.1 8 Noroeste 13 Noroeste -- -- -- 46
2018-07-10 01:00:00 23.7 3 Noroeste 8 Oeste -- -- -- 45
2018-07-10 00:00:00 23.7 4 Oeste 8 Oeste -- -- -- 45
2018-07-09 23:00:00 24.6 0 Calma 9 Nordeste -- -- -- 43
2018-07-09 22:00:00 25.4 3 Nordeste 19 Este -- -- -- 42
2018-07-09 21:00:00 26.8 9 Este 25 Este -- -- -- 42
2018-07-09 20:00:00 28.2 11 Este 33 Nordeste -- -- -- 40
2018-07-09 19:00:00 29.4 14 Nordeste 33 Este -- -- -- 38
2018-07-09 18:00:00 29.9 19 Este 44 Nordeste -- -- -- 40
2018-07-09 17:00:00 30.1 17 Nordeste 41 Nordeste -- -- -- 39
2018-07-09 16:00:00 30.8 18 Nordeste 39 Nordeste -- -- -- 37
2018-07-09 15:00:00 31 19 Este 35 Nordeste -- -- -- 36
2018-07-09 14:00:00 31.2 15 Nordeste 36 Este -- -- -- 36
2018-07-09 13:00:00 30.1 15 Nordeste 29 Este -- -- -- 38
2018-07-09 12:00:00 29.9 14 Este 24 Este -- -- -- 38
2018-07-09 11:00:00 30.2 5 Nordeste 13 Nordeste -- -- -- 38
2018-07-09 10:00:00 28 0 Calma 7 Nordeste -- -- -- 44
2018-07-09 09:00:00 24.4 2 Nordeste 6 Noroeste -- -- -- 58
2018-07-09 08:00:00 20.5 0 Calma 6 Noroeste -- -- -- 67
2018-07-09 07:00:00 18.4 0 Calma 9 Oeste -- -- -- 73
2018-07-09 06:00:00 19.3 2 Noroeste 8 Noroeste -- -- -- 71
2018-07-09 05:00:00 20.4 0 Calma 8 Noroeste -- -- -- 72
2018-07-09 04:00:00 20.2 0 Calma 7 Noroeste -- -- -- 75
2018-07-09 03:00:00 20.4 0 Calma 8 Noroeste -- -- -- 72
2018-07-09 02:00:00 20.9 3 Norte 8 Noroeste -- -- -- 71
2018-07-09 01:00:00 21.7 0 Calma 7 Nordeste -- -- -- 71
2018-07-09 00:00:00 21.7 5 Nordeste 13 Este -- -- -- 74
2018-07-08 23:00:00 22.5 6 Nordeste 20 Este -- -- -- 68
2018-07-08 22:00:00 23.5 12 Nordeste 29 Nordeste -- -- -- 65
2018-07-08 21:00:00 24.8 14 Este 27 Nordeste -- -- -- 58
2018-07-08 20:00:00 25.8 17 Nordeste 33 Nordeste -- -- -- 52
2018-07-08 19:00:00 27.8 19 Nordeste 36 Este -- -- -- 45
2018-07-08 18:00:00 29.5 16 Nordeste 36 Nordeste -- -- -- 41
2018-07-08 17:00:00 30.5 15 Nordeste 33 Este -- -- -- 38
2018-07-08 16:00:00 30.8 14 Nordeste 30 Nordeste -- -- -- 34
2018-07-08 15:00:00 31.2 12 Nordeste 27 Nordeste -- -- -- 34
2018-07-08 14:00:00 30.3 12 Nordeste 25 Este -- -- -- 36
2018-07-08 13:00:00 28.7 12 Nordeste 27 Este -- -- -- 38
2018-07-08 12:00:00 27.9 10 Nordeste 24 Este -- -- -- 41
2018-07-08 11:00:00 26 10 Nordeste 21 Nordeste -- -- -- 45
2018-07-08 10:00:00 24.6 5 Nordeste 13 Nordeste -- -- -- 48
2018-07-08 09:00:00 22.6 2 Norte 8 Nordeste -- -- -- 53
2018-07-08 08:00:00 20.4 3 Noroeste 10 Norte -- -- -- 55
2018-07-08 07:00:00 19.8 0 Calma 8 Noroeste -- -- -- 56
2018-07-08 06:00:00 20.5 3 Nordeste 15 Este -- -- -- 53
2018-07-08 05:00:00 20.8 9 Nordeste 23 Nordeste -- -- -- 52
2018-07-08 04:00:00 21.4 5 Noroeste 13 Oeste -- -- -- 51
2018-07-08 03:00:00 20.5 7 Noroeste 12 Noroeste -- -- -- 53
2018-07-08 02:00:00 22 3 Noroeste 11 Noroeste -- -- -- 52
2018-07-08 01:00:00 21.9 2 Norte 8 Noroeste -- -- -- 50
2018-07-08 00:00:00 22.1 0 Calma 12 Este -- -- -- 50
2018-07-07 23:00:00 23 8 Nordeste 18 Este -- -- -- 48
2018-07-07 22:00:00 24.1 11 Nordeste 28 Nordeste -- -- -- 45
2018-07-07 21:00:00 25 14 Nordeste 37 Este -- -- -- 44
2018-07-07 20:00:00 26.7 13 Nordeste 32 Este -- -- -- 43
2018-07-07 19:00:00 28.1 14 Nordeste 35 Este -- -- -- 39
2018-07-07 18:00:00 29 16 Este 35 Nordeste -- -- -- 35
2018-07-07 17:00:00 30 16 Este 33 Este -- -- -- 34
2018-07-07 16:00:00 30.7 17 Nordeste 39 Este -- -- -- 31
2018-07-07 15:00:00 30.5 14 Nordeste 34 Este -- -- -- 31
2018-07-07 14:00:00 30.2 14 Nordeste 33 Este -- -- -- 32
2018-07-07 13:00:00 29.1 11 Nordeste 30 Este -- -- -- 33
2018-07-07 12:00:00 27.4 13 Nordeste 31 Sudeste -- -- -- 34
2018-07-07 11:00:00 26 15 Nordeste 32 Este -- -- -- 36
2018-07-07 10:00:00 25.1 12 Nordeste 27 Este -- -- -- 39
2018-07-07 09:00:00 21 4 Norte 10 Noroeste -- -- -- 50
2018-07-07 08:00:00 18.9 2 Norte 9 Oeste -- -- -- 51
2018-07-07 07:00:00 18.9 0 Calma 10 Oeste -- -- -- 52
2018-07-07 06:00:00 17.6 3 Noroeste 10 Norte -- -- -- 53
2018-07-07 05:00:00 18.5 3 Noroeste 6 Noroeste -- -- -- 51
2018-07-07 04:00:00 18.8 0 Calma 7 Norte -- -- -- 51
2018-07-07 03:00:00 19.8 0 Calma 10 Norte -- -- -- 49
2018-07-07 02:00:00 20.2 3 Norte 10 Oeste -- -- -- 48
2018-07-07 01:00:00 20.4 2 Nordeste 16 Este -- -- -- 46
2018-07-07 00:00:00 21.5 10 Este 21 Este -- -- -- 44
2018-07-06 23:00:00 22.4 9 Este 24 Este -- -- -- 44
2018-07-06 22:00:00 23.3 10 Este 23 Nordeste -- -- -- 43
2018-07-06 21:00:00 24.4 10 Este 28 Nordeste -- -- -- 42
2018-07-06 20:00:00 26 17 Nordeste 33 Este -- -- -- 40
2018-07-06 19:00:00 27.5 19 Este 40 Nordeste -- -- -- 38
2018-07-06 18:00:00 28.7 18 Nordeste 38 Este -- -- -- 38
2018-07-06 17:00:00 29.5 16 Nordeste 32 Este -- -- -- 37
2018-07-06 16:00:00 29.2 17 Este 35 Este -- -- -- 38
2018-07-06 15:00:00 29 17 Nordeste 43 Este -- -- -- 38
2018-07-06 14:00:00 28.1 18 Este 40 Sudeste -- -- -- 39
2018-07-06 13:00:00 27.3 15 Este 37 Nordeste -- -- -- 39
2018-07-06 12:00:00 27 17 Este 38 Este -- -- -- 39
2018-07-06 11:00:00 25.6 16 Este 29 Nordeste -- -- -- 41
2018-07-06 10:00:00 25.7 4 Nordeste 11 Nordeste -- -- -- 42
2018-07-06 09:00:00 22.6 2 Nordeste 14 Norte -- -- -- 45
2018-07-06 08:00:00 21.3 3 Noroeste 12 Noroeste -- -- -- 46
2018-07-06 07:00:00 18.6 8 Noroeste 12 Noroeste -- -- -- 49
2018-07-06 06:00:00 20.2 3 Noroeste 14 Noroeste -- -- -- 48
2018-07-06 05:00:00 20.4 3 Norte 14 Noroeste -- -- -- 47
2018-07-06 04:00:00 20.6 4 Norte 14 Noroeste -- -- -- 46
2018-07-06 03:00:00 21.4 4 Norte 14 Noroeste -- -- -- 45
2018-07-06 02:00:00 21.9 3 Norte 9 Norte -- -- -- 44
2018-07-06 01:00:00 22.5 3 Norte 12 Norte -- -- -- 44
2018-07-06 00:00:00 23.6 0 Calma 10 Norte -- -- -- 43
2018-07-05 23:00:00 24 3 Noroeste 11 Noroeste -- -- -- 43
2018-07-05 22:00:00 25 2 Nordeste 15 Este -- -- -- 41
2018-07-05 21:00:00 25.7 9 Este 23 Este -- -- -- 42
2018-07-05 20:00:00 26.1 13 Nordeste 28 Este -- -- -- 40
2018-07-05 19:00:00 27.2 15 Nordeste 37 Nordeste -- -- -- 37
2018-07-05 18:00:00 28.5 16 Nordeste 32 Nordeste -- -- -- 34
2018-07-05 17:00:00 30.4 14 Este 28 Nordeste -- -- -- 33
2018-07-05 16:00:00 32.3 3 Norte 15 Noroeste -- -- -- 32
2018-07-05 15:00:00 29.4 6 Nordeste 15 Nordeste -- -- -- 34
2018-07-05 14:00:00 28.9 4 Norte 13 Norte -- -- -- 34
2018-07-05 13:00:00 29.3 4 Nordeste 15 Este -- -- -- 34
2018-07-05 12:00:00 26.9 5 Norte 18 Noroeste -- -- -- 36
2018-07-05 11:00:00 25.3 4 Norte 18 Norte -- -- -- 42
2018-07-05 10:00:00 24.1 8 Norte 18 Norte -- -- -- 45
2018-07-05 09:00:00 22.6 8 Norte 25 Noroeste -- -- -- 47
2018-07-05 08:00:00 20 7 Noroeste 17 Norte -- -- -- 51
2018-07-05 07:00:00 17.9 8 Noroeste 19 Noroeste -- -- -- 52
2018-07-05 06:00:00 18.2 9 Noroeste 18 Noroeste -- -- -- 50
2018-07-05 05:00:00 19.5 5 Norte 20 Noroeste -- -- -- 47
2018-07-05 04:00:00 19.7 9 Noroeste 19 Noroeste -- -- -- 46
2018-07-05 03:00:00 19.9 10 Noroeste 22 Noroeste -- -- -- 45
2018-07-05 02:00:00 20.6 8 Noroeste 17 Norte -- -- -- 44
2018-07-05 01:00:00 21.7 7 Noroeste 21 Norte -- -- -- 42
2018-07-05 00:00:00 22.5 10 Noroeste 23 Noroeste -- -- -- 40
2018-07-04 23:00:00 23.9 12 Noroeste 22 Norte -- -- -- 36
2018-07-04 22:00:00 25.4 10 Noroeste 22 Noroeste -- -- -- 31
2018-07-04 21:00:00 27.4 10 Noroeste 27 Noroeste -- -- -- 27
2018-07-04 20:00:00 29.2 10 Norte 23 Norte -- -- -- 25
2018-07-04 19:00:00 32.4 9 Noroeste 23 Noroeste -- -- -- 23
2018-07-04 18:00:00 33.7 7 Norte 21 Noroeste -- -- -- 22
2018-07-04 17:00:00 33.4 7 Norte 17 Noroeste -- -- -- 22
2018-07-04 16:00:00 34.1 5 Norte 17 Norte -- -- -- 22
2018-07-04 15:00:00 34.6 5 Norte 17 Norte -- -- -- 23
2018-07-04 14:00:00 31.9 6 Norte 18 Oeste -- -- -- 25
2018-07-04 13:00:00 31.1 2 Nordeste 12 Nordeste -- -- -- 26
2018-07-04 12:00:00 29.8 3 Norte 15 Norte -- -- -- 31
2018-07-04 11:00:00 28.5 3 Norte 12 Nordeste -- -- -- 35
2018-07-04 10:00:00 26.5 2 Nordeste 12 Norte -- -- -- 40
2018-07-04 09:00:00 23.3 4 Noroeste 12 Noroeste -- -- -- 42
2018-07-04 08:00:00 20.5 5 Noroeste 13 Norte -- -- -- 44
2018-07-04 07:00:00 19.8 6 Noroeste 13 Norte -- -- -- 43
2018-07-04 06:00:00 20.2 5 Noroeste 14 Noroeste -- -- -- 42
2018-07-04 05:00:00 21.2 2 Noroeste 11 Noroeste -- -- -- 40
2018-07-04 04:00:00 21.8 3 Noroeste 13 Oeste -- -- -- 37
2018-07-04 03:00:00 22.7 3 Noroeste 12 Oeste -- -- -- 35
2018-07-04 02:00:00 23.4 3 Noroeste 13 Noroeste -- -- -- 32
2018-07-04 01:00:00 23.7 5 Noroeste 14 Noroeste -- -- -- 28
2018-07-04 00:00:00 24.8 4 Oeste 12 Oeste -- -- -- 31
2018-07-03 23:00:00 24.5 3 Oeste 10 Oeste -- -- -- 32
2018-07-03 22:00:00 25.6 0 Calma 22 Este -- -- -- 31
2018-07-03 21:00:00 27 10 Nordeste 27 Nordeste -- -- -- 29
2018-07-03 20:00:00 29.7 9 Nordeste 30 Nordeste -- -- -- 27
2018-07-03 19:00:00 33.6 12 Norte 37 Norte -- -- -- 19
2018-07-03 18:00:00 33.3 4 Norte 33 Este -- -- -- 23
2018-07-03 17:00:00 32.5 13 Nordeste 33 Nordeste -- -- -- 27
2018-07-03 16:00:00 33.6 13 Nordeste 25 Nordeste -- -- -- 24
2018-07-03 15:00:00 33.1 11 Nordeste 30 Este -- -- -- 26
2018-07-03 14:00:00 30.9 12 Nordeste 26 Este -- -- -- 27
2018-07-03 13:00:00 28.9 10 Nordeste 25 Este -- -- -- 30
2018-07-03 12:00:00 27.1 12 Nordeste 24 Nordeste -- -- -- 33
2018-07-03 11:00:00 27.1 3 Nordeste 11 Este -- -- -- 39
2018-07-03 10:00:00 24.1 5 Norte 10 Norte -- -- -- 45
2018-07-03 09:00:00 21.4 2 Nordeste 12 Oeste -- -- -- 49
2018-07-03 08:00:00 18.4 5 Noroeste 15 Noroeste -- -- -- 52
2018-07-03 07:00:00 18.3 6 Noroeste 14 Noroeste -- -- -- 53
2018-07-03 06:00:00 18.4 5 Noroeste 15 Noroeste -- -- -- 53
2018-07-03 05:00:00 19.4 5 Norte 15 Noroeste -- -- -- 52
2018-07-03 04:00:00 19.7 6 Noroeste 15 Noroeste -- -- -- 51
2018-07-03 03:00:00 20.1 6 Norte 15 Noroeste -- -- -- 51
2018-07-03 02:00:00 20.9 4 Norte 17 Oeste -- -- -- 49
2018-07-03 01:00:00 22.1 7 Noroeste 15 Noroeste -- -- -- 48
2018-07-03 00:00:00 23.2 6 Noroeste 12 Noroeste -- -- -- 45
2018-07-02 23:00:00 24.6 4 Norte 13 Noroeste -- -- -- 41
2018-07-02 22:00:00 26 6 Noroeste 14 Noroeste -- -- -- 38
2018-07-02 21:00:00 25.9 5 Nordeste 20 Este -- -- -- 38
2018-07-02 20:00:00 26.1 8 Nordeste 26 Nordeste -- -- -- 37
2018-07-02 19:00:00 29.2 11 Nordeste 31 Nordeste -- -- -- 34
2018-07-02 18:00:00 29.8 13 Nordeste 30 Este -- -- -- 31
2018-07-02 17:00:00 29.8 15 Nordeste 27 Este -- -- -- 30
2018-07-02 16:00:00 30 12 Nordeste 25 Este -- -- -- 29
2018-07-02 15:00:00 29.9 11 Nordeste 25 Nordeste -- -- -- 27
2018-07-02 14:00:00 29.3 7 Nordeste 18 Nordeste -- -- -- 28
2018-07-02 13:00:00 28.6 6 Nordeste 13 Este -- -- -- 29
2018-07-02 12:00:00 26.4 3 Norte 15 Norte -- -- -- 34
2018-07-02 11:00:00 25.7 7 Norte 17 Norte -- -- -- 40
2018-07-02 10:00:00 23.4 6 Norte 17 Noroeste -- -- -- 47
2018-07-02 09:00:00 20.7 7 Norte 16 Norte -- -- -- 53
2018-07-02 08:00:00 17.6 8 Noroeste 18 Noroeste -- -- -- 57
2018-07-02 07:00:00 15.9 8 Norte 17 Norte -- -- -- 61
2018-07-02 06:00:00 16.5 8 Noroeste 16 Noroeste -- -- -- 60
2018-07-02 05:00:00 17.3 6 Noroeste 21 Norte -- -- -- 57
2018-07-02 04:00:00 17.9 9 Noroeste 20 Noroeste -- -- -- 56
2018-07-02 03:00:00 18.6 5 Norte 17 Noroeste -- -- -- 53
2018-07-02 02:00:00 19.9 3 Norte 19 Noroeste -- -- -- 51
2018-07-02 01:00:00 20.6 5 Norte 20 Noroeste -- -- -- 49
2018-07-02 00:00:00 21.4 4 Norte 18 Noroeste -- -- -- 47
2018-07-01 23:00:00 22.5 9 Noroeste 19 Norte -- -- -- 45
2018-07-01 22:00:00 23.9 7 Noroeste 17 Norte -- -- -- 42
2018-07-01 21:00:00 25.5 10 Noroeste 22 Norte -- -- -- 38
2018-07-01 20:00:00 27.3 9 Noroeste 21 Norte -- -- -- 35
2018-07-01 19:00:00 30.4 9 Noroeste 35 Noroeste -- -- -- 29
2018-07-01 18:00:00 29.7 19 Noroeste 40 Norte -- -- -- 30
2018-07-01 17:00:00 30 15 Noroeste 39 Noroeste -- -- -- 31
2018-07-01 16:00:00 30 9 Norte 24 Noroeste -- -- -- 31
2018-07-01 15:00:00 29.3 9 Norte 30 Noroeste -- -- -- 34
2018-07-01 14:00:00 29.5 3 Norte 13 Nordeste -- -- -- 34
2018-07-01 13:00:00 28.9 4 Nordeste 15 Este -- -- -- 34
2018-07-01 12:00:00 27.5 3 Norte 14 Nordeste -- -- -- 38
2018-07-01 11:00:00 26.3 3 Nordeste 12 Nordeste -- -- -- 43
2018-07-01 10:00:00 24.8 2 Nordeste 11 Norte -- -- -- 53
2018-07-01 09:00:00 22.1 2 Norte 12 Norte -- -- -- 60
2018-07-01 08:00:00 19.6 6 Noroeste 13 Norte -- -- -- 67
2018-07-01 07:00:00 18.3 4 Noroeste 12 Norte -- -- -- 71
2018-07-01 06:00:00 18.3 4 Noroeste 13 Noroeste -- -- -- 71
2018-07-01 05:00:00 18.7 6 Noroeste 12 Norte -- -- -- 70
2018-07-01 04:00:00 19.5 3 Noroeste 10 Norte -- -- -- 69
2018-07-01 03:00:00 20 2 Noroeste 9 Noroeste -- -- -- 69
2018-07-01 02:00:00 21.1 3 Nordeste 9 Nordeste -- -- -- 67
2018-07-01 01:00:00 21.6 3 Noroeste 9 Norte -- -- -- 64
2018-07-01 00:00:00 21.9 2 Oeste 8 Este -- -- -- 67
2018-06-30 23:00:00 22.3 0 Calma 7 Noroeste -- -- -- 67
2018-06-30 22:00:00 23.1 3 Norte 9 Este -- -- -- 66
2018-06-30 21:00:00 23.2 5 Este 22 Norte -- -- -- 64
2018-06-30 20:00:00 23.9 11 Nordeste 35 Este -- -- -- 62
2018-06-30 19:00:00 24.8 17 Nordeste 36 Este -- -- -- 57
2018-06-30 18:00:00 25.7 17 Nordeste 39 Este -- -- -- 53
2018-06-30 17:00:00 27.1 17 Nordeste 39 Nordeste -- -- -- 49
2018-06-30 16:00:00 27.1 18 Este 35 Nordeste -- -- -- 47
2018-06-30 15:00:00 26.8 15 Nordeste 33 Este -- -- -- 45
2018-06-30 14:00:00 26.3 17 Este 34 Nordeste -- -- -- 47
2018-06-30 13:00:00 25.4 16 Nordeste 36 Nordeste -- -- -- 50
2018-06-30 12:00:00 24.5 17 Nordeste 36 Este -- -- -- 53
2018-06-30 11:00:00 22.6 18 Nordeste 32 Este -- -- -- 60
2018-06-30 10:00:00 22 13 Este 24 Este -- -- -- 64
2018-06-30 09:00:00 22.8 2 Nordeste 8 Nordeste -- -- -- 60
2018-06-30 08:00:00 20.2 3 Norte 8 Noroeste -- -- -- 71
2018-06-30 07:00:00 18.5 2 Norte 10 Noroeste -- -- -- 84
2018-06-30 06:00:00 18.9 3 Noroeste 9 Norte -- -- -- 76
2018-06-30 05:00:00 19.3 2 Noroeste 6 Noroeste -- -- -- 78
2018-06-30 04:00:00 19.6 0 Calma 10 Nordeste -- -- -- 83
2018-06-30 03:00:00 19.7 3 Nordeste 15 Este -- -- -- 81
2018-06-30 02:00:00 19.9 8 Nordeste 24 Nordeste -- -- -- 79
2018-06-30 01:00:00 19.3 13 Nordeste 37 Este -- -- -- 85
2018-06-30 00:00:00 20.7 8 Este 17 Este -- -- -- 72
2018-06-29 23:00:00 21.4 5 Nordeste 23 Este -- -- -- 67
2018-06-29 22:00:00 23 10 Nordeste 30 Nordeste -- -- -- 59
2018-06-29 21:00:00 24.1 14 Nordeste 32 Este -- -- -- 57
2018-06-29 20:00:00 25.2 15 Nordeste 39 Este -- -- -- 55
2018-06-29 19:00:00 26.5 22 Este 42 Nordeste -- -- -- 53
2018-06-29 18:00:00 27.3 21 Este 44 Nordeste -- -- -- 52
2018-06-29 17:00:00 27.8 17 Nordeste 39 Este -- -- -- 52
2018-06-29 16:00:00 28.6 18 Nordeste 38 Este -- -- -- 50
2018-06-29 15:00:00 27.6 18 Nordeste 36 Este -- -- -- 51
2018-06-29 14:00:00 26.9 18 Nordeste 38 Nordeste -- -- -- 50
2018-06-29 13:00:00 26.3 19 Este 39 Este -- -- -- 53
2018-06-29 12:00:00 25 18 Nordeste 33 Este -- -- -- 55
2018-06-29 11:00:00 24.5 13 Nordeste 25 Nordeste -- -- -- 55
2018-06-29 10:00:00 24.4 4 Nordeste 10 Nordeste -- -- -- 52
2018-06-29 09:00:00 23.2 2 Nordeste 10 Noroeste -- -- -- 56
2018-06-29 08:00:00 21.3 4 Noroeste 9 Noroeste -- -- -- 60
2018-06-29 07:00:00 19.8 2 Norte 8 Noroeste -- -- -- 62
2018-06-29 06:00:00 20.9 3 Norte 10 Norte -- -- -- 59
2018-06-29 05:00:00 21.6 2 Noroeste 6 Norte -- -- -- 56
2018-06-29 04:00:00 22.1 4 Norte 11 Oeste -- -- -- 55
2018-06-29 03:00:00 23.1 2 Norte 11 Oeste -- -- -- 52
2018-06-29 02:00:00 23.2 4 Noroeste 11 Noroeste -- -- -- 53
2018-06-29 01:00:00 23.8 4 Norte 8 Norte -- -- -- 51
2018-06-29 00:00:00 23.9 0 Calma 12 Este -- -- -- 58
2018-06-28 23:00:00 23.9 2 Nordeste 9 Nordeste -- -- -- 60
2018-06-28 22:00:00 25.4 3 Nordeste 9 Nordeste -- -- -- 54
2018-06-28 21:00:00 26.6 4 Este 13 Este -- -- -- 52
2018-06-28 20:00:00 27.2 6 Este 19 Este -- -- -- 50
2018-06-28 19:00:00 28 8 Nordeste 31 Este -- -- -- 51
2018-06-28 18:00:00 27.7 15 Nordeste 32 Este -- -- -- 48
2018-06-28 17:00:00 28.7 16 Nordeste 31 Nordeste -- -- -- 43
2018-06-28 16:00:00 30.4 16 Nordeste 34 Nordeste -- -- -- 40
2018-06-28 15:00:00 30.4 16 Nordeste 36 Nordeste -- -- -- 38
2018-06-28 14:00:00 28.5 15 Nordeste 31 Nordeste -- -- -- 40
2018-06-28 13:00:00 28.1 13 Nordeste 28 Este -- -- -- 41
2018-06-28 12:00:00 28.8 10 Nordeste 20 Nordeste -- -- -- 41
2018-06-28 11:00:00 28.8 5 Nordeste 13 Nordeste -- -- -- 42
2018-06-28 10:00:00 26.5 3 Norte 10 Noroeste -- -- -- 45
2018-06-28 09:00:00 23.8 5 Noroeste 17 Noroeste -- -- -- 52
2018-06-28 08:00:00 21.5 3 Noroeste 20 Noroeste -- -- -- 57
2018-06-28 07:00:00 20.5 2 Noroeste 16 Oeste -- -- -- 60
2018-06-28 06:00:00 20.5 3 Noroeste 18 Noroeste -- -- -- 60
2018-06-28 05:00:00 21.1 4 Noroeste 14 Norte -- -- -- 60
2018-06-28 04:00:00 21.6 2 Noroeste 6 Norte -- -- -- 60
2018-06-28 03:00:00 20.9 3 Nordeste 10 Este -- -- -- 64
2018-06-28 02:00:00 23 0 Calma 15 Norte -- -- -- 53
2018-06-28 01:00:00 23.3 6 Noroeste 13 Noroeste -- -- -- 52
2018-06-28 00:00:00 24.3 3 Noroeste 8 Noroeste -- -- -- 50
2018-06-27 23:00:00 23.8 2 Noroeste 6 Noroeste -- -- -- 52
2018-06-27 22:00:00 24.2 2 Nordeste 16 Nordeste -- -- -- 51
2018-06-27 21:00:00 25.1 9 Este 24 Nordeste -- -- -- 49
2018-06-27 20:00:00 26.1 13 Nordeste 33 Este -- -- -- 44
2018-06-27 19:00:00 27.9 15 Nordeste 35 Este -- -- -- 40
2018-06-27 18:00:00 29 15 Nordeste 39 Este -- -- -- 38
2018-06-27 17:00:00 28.4 18 Nordeste 39 Este -- -- -- 38
2018-06-27 16:00:00 29.7 15 Nordeste 33 Este -- -- -- 38
2018-06-27 15:00:00 29.2 15 Nordeste 34 Este -- -- -- 38
2018-06-27 14:00:00 28.6 16 Nordeste 32 Este -- -- -- 38
2018-06-27 13:00:00 27.9 15 Este 30 Este -- -- -- 38
2018-06-27 12:00:00 26.5 12 Nordeste 26 Nordeste -- -- -- 47
2018-06-27 11:00:00 24.7 11 Nordeste 21 Nordeste -- -- -- 52
2018-06-27 10:00:00 22.9 6 Nordeste 18 Nordeste -- -- -- 58
2018-06-27 09:00:00 20.6 11 Nordeste 23 Este -- -- -- 67
2018-06-27 08:00:00 20.1 0 Calma 10 Oeste -- -- -- 67
2018-06-27 07:00:00 20.1 0 Calma 11 Oeste -- -- -- 67
2018-06-27 06:00:00 20.2 2 Noroeste 8 Noroeste -- -- -- 67
2018-06-27 05:00:00 19.1 3 Noroeste 7 Noroeste -- -- -- 68
2018-06-27 04:00:00 20.2 2 Noroeste 11 Oeste -- -- -- 69
2018-06-27 03:00:00 19.6 2 Noroeste 9 Oeste -- -- -- 71
2018-06-27 02:00:00 19.8 0 Calma 6 Norte -- -- -- 69
2018-06-27 01:00:00 19.7 2 Norte 8 Nordeste -- -- -- 71
2018-06-27 00:00:00 19.9 0 Calma 10 Este -- -- -- 71
2018-06-26 23:00:00 20.7 5 Nordeste 17 Este -- -- -- 69
2018-06-26 22:00:00 22.1 7 Nordeste 23 Nordeste -- -- -- 63
2018-06-26 21:00:00 24.4 11 Nordeste 30 Nordeste -- -- -- 49
2018-06-26 20:00:00 26.1 18 Este 39 Este -- -- -- 45
2018-06-26 19:00:00 28.3 14 Nordeste 42 Este -- -- -- 41
2018-06-26 18:00:00 28.5 20 Este 44 Este -- -- -- 40
2018-06-26 17:00:00 29.3 21 Este 44 Este -- -- -- 37
2018-06-26 16:00:00 29.5 24 Este 46 Este -- -- -- 38
2018-06-26 15:00:00 29.6 21 Nordeste 46 Nordeste -- -- -- 38
2018-06-26 14:00:00 28.7 22 Este 42 Este -- -- -- 38
2018-06-26 13:00:00 27.8 17 Nordeste 39 Este -- -- -- 41
2018-06-26 12:00:00 26.7 20 Nordeste 39 Este -- -- -- 42
2018-06-26 11:00:00 25.6 13 Nordeste 29 Este -- -- -- 46
2018-06-26 10:00:00 25.1 7 Nordeste 17 Nordeste -- -- -- 53
2018-06-26 09:00:00 22.1 0 Calma 5 Nordeste -- -- -- 69
2018-06-26 08:00:00 19.2 0 Calma 9 Oeste -- -- -- 78
2018-06-26 07:00:00 17.7 4 Oeste 7 Oeste -- -- -- 84
2018-06-26 06:00:00 17.8 0 Calma 7 Noroeste -- -- -- 83
2018-06-26 05:00:00 18.6 0 Calma 6 Oeste -- -- -- 84
2018-06-26 04:00:00 19.6 0 Calma 7 Oeste -- -- -- 73
2018-06-26 03:00:00 19.6 2 Norte 6 Norte -- -- -- 79
2018-06-26 02:00:00 20.1 0 Calma 6 Noroeste -- -- -- 79
2018-06-26 01:00:00 20 0 Calma 9 Oeste -- -- -- 80
2018-06-26 00:00:00 20.8 5 Nordeste 10 Nordeste -- -- -- 76
2018-06-25 23:00:00 21.7 4 Nordeste 16 Este -- -- -- 72
2018-06-25 22:00:00 22.9 8 Este 23 Nordeste -- -- -- 66
2018-06-25 21:00:00 25.1 12 Nordeste 27 Este -- -- -- 54
2018-06-25 20:00:00 27 16 Nordeste 32 Este -- -- -- 48
2018-06-25 19:00:00 29 18 Nordeste 37 Este -- -- -- 42
2018-06-25 18:00:00 28.9 19 Nordeste 40 Este -- -- -- 41
2018-06-25 17:00:00 29.4 18 Este 40 Este -- -- -- 39
2018-06-25 16:00:00 29.9 16 Este 45 Este -- -- -- 40
2018-06-25 15:00:00 29.5 22 Este 40 Este -- -- -- 41
2018-06-25 14:00:00 29.7 17 Este 40 Este -- -- -- 41
2018-06-25 13:00:00 27.9 21 Nordeste 38 Este -- -- -- 45
2018-06-25 12:00:00 27.3 19 Este 36 Este -- -- -- 47
2018-06-25 11:00:00 25.7 17 Este 31 Este -- -- -- 50
2018-06-25 10:00:00 24.4 11 Este 25 Este -- -- -- 54
2018-06-25 09:00:00 22 2 Nordeste 7 Nordeste -- -- -- 66
2018-06-25 08:00:00 19.2 0 Calma 7 Noroeste -- -- -- 71
2018-06-25 07:00:00 18.6 2 Noroeste 8 Norte -- -- -- 73
2018-06-25 06:00:00 18.9 2 Norte 8 Norte -- -- -- 76
2018-06-25 05:00:00 18.3 5 Noroeste 10 Oeste -- -- -- 78
2018-06-25 04:00:00 19.3 4 Norte 10 Nordeste -- -- -- 75
2018-06-25 03:00:00 19.6 5 Nordeste 12 Nordeste -- -- -- 75
2018-06-25 02:00:00 20.2 4 Nordeste 10 Este -- -- -- 71
2018-06-25 01:00:00 21.3 3 Nordeste 13 Nordeste -- -- -- 66
2018-06-25 00:00:00 21.9 3 Nordeste 14 Este -- -- -- 64
2018-06-24 23:00:00 22.7 8 Nordeste 26 Nordeste -- -- -- 58
2018-06-24 22:00:00 24.5 12 Este 24 Este -- -- -- 52
2018-06-24 21:00:00 29.2 4 Nordeste 27 Este -- -- -- 40
2018-06-24 20:00:00 30.1 14 Este 32 Nordeste -- -- -- 38
2018-06-24 19:00:00 31.9 17 Este 35 Este -- -- -- 36
2018-06-24 18:00:00 32.8 16 Nordeste 31 Este -- -- -- 34
2018-06-24 17:00:00 33.4 14 Nordeste 31 Nordeste -- -- -- 34
2018-06-24 16:00:00 32.2 15 Este 35 Nordeste -- -- -- 35
2018-06-24 15:00:00 31.2 20 Nordeste 39 Este -- -- -- 37
2018-06-24 14:00:00 30.7 20 Este 43 Este -- -- -- 38
2018-06-24 13:00:00 29.4 20 Este 42 Este -- -- -- 39
2018-06-24 12:00:00 28.8 17 Nordeste 36 Este -- -- -- 39
2018-06-24 11:00:00 27.9 19 Este 34 Este -- -- -- 40
2018-06-24 10:00:00 26.3 12 Este 25 Este -- -- -- 42
2018-06-24 09:00:00 25.3 8 Nordeste 15 Nordeste -- -- -- 44
2018-06-24 08:00:00 22.4 4 Nordeste 6 Nordeste -- -- -- 46
2018-06-24 07:00:00 21.2 0 Calma 8 Norte -- -- -- 49
2018-06-24 06:00:00 20.2 4 Nordeste 9 Nordeste -- -- -- 50
2018-06-24 05:00:00 20 0 Calma 6 Este -- -- -- 51
2018-06-24 04:00:00 20.4 0 Calma 3 Nordeste -- -- -- 53
2018-06-24 03:00:00 21.2 0 Calma 6 Norte -- -- -- 51
2018-06-24 02:00:00 20.8 0 Calma 13 Nordeste -- -- -- 53
2018-06-24 01:00:00 20.8 4 Nordeste 15 Nordeste -- -- -- 52
2018-06-24 00:00:00 21.5 7 Nordeste 18 Este -- -- -- 50
2018-06-23 23:00:00 22.8 8 Nordeste 22 Nordeste -- -- -- 46
2018-06-23 22:00:00 24.9 10 Nordeste 23 Este -- -- -- 40
2018-06-23 21:00:00 26.7 10 Este 24 Este -- -- -- 35
2018-06-23 20:00:00 28.3 13 Este 35 Nordeste -- -- -- 32
2018-06-23 19:00:00 29.4 15 Nordeste 35 Nordeste -- -- -- 31
2018-06-23 18:00:00 30.5 15 Nordeste 39 Este -- -- -- 31
2018-06-23 17:00:00 30.7 17 Nordeste 37 Este -- -- -- 30
2018-06-23 16:00:00 30.8 18 Nordeste 40 Este -- -- -- 29
2018-06-23 15:00:00 30.8 16 Nordeste 35 Nordeste -- -- -- 30
2018-06-23 14:00:00 30.2 17 Nordeste 36 Este -- -- -- 31
2018-06-23 13:00:00 29.1 17 Nordeste 36 Este -- -- -- 31
2018-06-23 12:00:00 28.2 16 Nordeste 35 Nordeste -- -- -- 32
2018-06-23 11:00:00 27.7 13 Nordeste 28 Este -- -- -- 34
2018-06-23 10:00:00 26.4 13 Nordeste 24 Este -- -- -- 38
2018-06-23 09:00:00 24.4 4 Nordeste 8 Nordeste -- -- -- 41
2018-06-23 08:00:00 21.3 0 Calma 6 Este -- -- -- 45
2018-06-23 07:00:00 18.6 0 Calma 2 Norte -- -- -- 52
2018-06-23 06:00:00 19.7 0 Calma 3 Nordeste -- -- -- 52
2018-06-23 05:00:00 17.7 0 Calma 3 Nordeste -- -- -- 60
2018-06-23 04:00:00 17.8 0 Calma 12 Oeste -- -- -- 59
2018-06-23 03:00:00 18.5 2 Noroeste 9 Noroeste -- -- -- 58
2018-06-23 02:00:00 19.8 3 Noroeste 9 Norte -- -- -- 56
2018-06-23 01:00:00 20.8 0 Calma 5 Este -- -- -- 54
2018-06-23 00:00:00 21.4 0 Calma 8 Noroeste -- -- -- 52
2018-06-22 23:00:00 21.7 2 Nordeste 15 Nordeste -- -- -- 51
2018-06-22 22:00:00 23.1 7 Este 27 Este -- -- -- 47
2018-06-22 21:00:00 25.1 13 Este 29 Este -- -- -- 41
2018-06-22 20:00:00 27.3 14 Nordeste 33 Nordeste -- -- -- 35
2018-06-22 19:00:00 29 11 Nordeste 28 Este -- -- -- 34
2018-06-22 18:00:00 28.7 12 Nordeste 38 Nordeste -- -- -- 35
2018-06-22 17:00:00 28.1 14 Nordeste 34 Nordeste -- -- -- 35
2018-06-22 16:00:00 28.2 17 Nordeste 34 Este -- -- -- 34
2018-06-22 15:00:00 29.4 14 Nordeste 36 Este -- -- -- 34
2018-06-22 14:00:00 28.8 16 Nordeste 36 Este -- -- -- 35
2018-06-22 13:00:00 28.7 14 Nordeste 38 Este -- -- -- 35
2018-06-22 12:00:00 27 15 Nordeste 39 Nordeste -- -- -- 36
2018-06-22 11:00:00 26.5 14 Nordeste 33 Nordeste -- -- -- 35
2018-06-22 10:00:00 25.4 8 Nordeste 18 Este -- -- -- 40
2018-06-22 09:00:00 23 0 Calma 5 Noroeste -- -- -- 46
2018-06-22 08:00:00 19.3 0 Calma 5 Nordeste -- -- -- 53
2018-06-22 07:00:00 17.1 0 Calma 6 Noroeste -- -- -- 57
2018-06-22 06:00:00 17.5 4 Noroeste 8 Noroeste -- -- -- 56
2018-06-22 05:00:00 17.5 0 Calma 5 Noroeste -- -- -- 55
2018-06-22 04:00:00 17.9 0 Calma 9 Oeste -- -- -- 55
2018-06-22 03:00:00 18.2 2 Noroeste 10 Noroeste -- -- -- 53
2018-06-22 02:00:00 19 3 Noroeste 9 Norte -- -- -- 52
2018-06-22 01:00:00 19.6 3 Nordeste 11 Este -- -- -- 53
2018-06-22 00:00:00 20.7 3 Este 11 Nordeste -- -- -- 49
2018-06-21 23:00:00 21.4 3 Nordeste 9 Este -- -- -- 47
2018-06-21 22:00:00 23.1 6 Este 20 Este -- -- -- 44
2018-06-21 21:00:00 24.2 11 Este 30 Este -- -- -- 41
2018-06-21 20:00:00 25.2 13 Nordeste 32 Nordeste -- -- -- 39
2018-06-21 19:00:00 26.8 12 Nordeste 31 Este -- -- -- 38
2018-06-21 18:00:00 27.5 16 Nordeste 35 Este -- -- -- 38
2018-06-21 17:00:00 27.8 12 Nordeste 35 Este -- -- -- 38
2018-06-21 16:00:00 27.4 11 Nordeste 36 Nordeste -- -- -- 37
2018-06-21 15:00:00 28.6 9 Nordeste 31 Este -- -- -- 35
2018-06-21 14:00:00 29.4 9 Nordeste 32 Este -- -- -- 34
2018-06-21 13:00:00 27.1 15 Nordeste 30 Este -- -- -- 35
2018-06-21 12:00:00 26.7 13 Nordeste 23 Este -- -- -- 39
2018-06-21 11:00:00 26.1 7 Nordeste 21 Este -- -- -- 41
2018-06-21 10:00:00 23.4 10 Nordeste 19 Este -- -- -- 45
2018-06-21 09:00:00 21.1 2 Nordeste 4 Nordeste -- -- -- 53
2018-06-21 08:00:00 19 0 Calma 4 Noroeste -- -- -- 56
2018-06-21 07:00:00 15.7 0 Calma 5 Noroeste -- -- -- 60
2018-06-21 06:00:00 16.6 0 Calma 6 Oeste -- -- -- 60
2018-06-21 05:00:00 17.1 0 Calma 5 Noroeste -- -- -- 56
2018-06-21 04:00:00 18.1 2 Noroeste 7 Oeste -- -- -- 53
2018-06-21 03:00:00 17.7 0 Calma 5 Noroeste -- -- -- 55
2018-06-21 02:00:00 18.9 0 Calma 6 Nordeste -- -- -- 54
2018-06-21 01:00:00 19.8 0 Calma 7 Este -- -- -- 53
2018-06-21 00:00:00 20.6 3 Este 10 Este -- -- -- 53
2018-06-20 23:00:00 21 5 Nordeste 16 Este -- -- -- 51
2018-06-20 22:00:00 22.6 8 Nordeste 19 Este -- -- -- 43
2018-06-20 21:00:00 24.5 9 Nordeste 24 Nordeste -- -- -- 38
2018-06-20 20:00:00 25.3 13 Nordeste 30 Este -- -- -- 38
2018-06-20 19:00:00 27.5 13 Nordeste 33 Nordeste -- -- -- 36
2018-06-20 18:00:00 27.9 12 Nordeste 36 Este -- -- -- 36
2018-06-20 17:00:00 27.7 16 Este 39 Nordeste -- -- -- 36
2018-06-20 16:00:00 28.1 17 Nordeste 32 Este -- -- -- 36
2018-06-20 15:00:00 27.9 14 Nordeste 35 Nordeste -- -- -- 36
2018-06-20 14:00:00 27.8 16 Nordeste 33 Este -- -- -- 35
2018-06-20 13:00:00 27 14 Nordeste 31 Este -- -- -- 36
2018-06-20 12:00:00 25.7 14 Nordeste 30 Nordeste -- -- -- 38
2018-06-20 11:00:00 24 15 Nordeste 27 Este -- -- -- 42
2018-06-20 10:00:00 22.6 8 Nordeste 19 Este -- -- -- 53
2018-06-20 09:00:00 20.5 5 Nordeste 13 Este -- -- -- 60
2018-06-20 08:00:00 17.5 0 Calma 5 Nordeste -- -- -- 67
2018-06-20 07:00:00 14.2 0 Calma 7 Este -- -- -- 78
2018-06-20 06:00:00 15.3 3 Norte 7 Noroeste -- -- -- 74
2018-06-20 05:00:00 16 0 Calma 5 Sudoeste -- -- -- 69
2018-06-20 04:00:00 16.7 2 Norte 5 Norte -- -- -- 69
2018-06-20 03:00:00 16.8 0 Calma 7 Nordeste -- -- -- 73
2018-06-20 02:00:00 18 0 Calma 12 Nordeste -- -- -- 71
2018-06-20 01:00:00 18 4 Nordeste 14 Nordeste -- -- -- 70
2018-06-20 00:00:00 19 6 Este 18 Este -- -- -- 64
2018-06-19 23:00:00 20 8 Este 24 Este -- -- -- 60
2018-06-19 22:00:00 21.1 13 Este 26 Este -- -- -- 54
2018-06-19 21:00:00 22.6 13 Nordeste 24 Nordeste -- -- -- 48
2018-06-19 20:00:00 23.9 11 Este 28 Este -- -- -- 45
2018-06-19 19:00:00 25.7 12 Nordeste 31 Nordeste -- -- -- 43
2018-06-19 18:00:00 25.4 11 Nordeste 34 Nordeste -- -- -- 43
2018-06-19 17:00:00 26.7 13 Nordeste 35 Este -- -- -- 41
2018-06-19 16:00:00 26.5 14 Nordeste 40 Este -- -- -- 41
2018-06-19 15:00:00 26.3 16 Este 35 Nordeste -- -- -- 41
2018-06-19 14:00:00 26.3 17 Este 33 Este -- -- -- 40
2018-06-19 13:00:00 26.1 15 Nordeste 35 Nordeste -- -- -- 40
2018-06-19 12:00:00 25.1 16 Este 34 Este -- -- -- 42
2018-06-19 11:00:00 23.9 14 Nordeste 29 Este -- -- -- 43
2018-06-19 10:00:00 23.1 14 Este 25 Este -- -- -- 46
2018-06-19 09:00:00 21.2 8 Nordeste 15 Este -- -- -- 54
2018-06-19 08:00:00 19.3 4 Nordeste 9 Este -- -- -- 59
2018-06-19 07:00:00 16.5 2 Nordeste 9 Nordeste -- -- -- 65
2018-06-19 06:00:00 16.9 3 Este 9 Nordeste -- -- -- 66
2018-06-19 05:00:00 17.3 5 Nordeste 15 Nordeste -- -- -- 65
2018-06-19 04:00:00 18 6 Nordeste 13 Este -- -- -- 62
2018-06-19 03:00:00 18.6 4 Nordeste 16 Este -- -- -- 58
2018-06-19 02:00:00 19.6 2 Nordeste 6 Nordeste -- -- -- 55
2018-06-19 01:00:00 20.6 0 Calma 5 Norte -- -- -- 52
2018-06-19 00:00:00 21 2 Nordeste 18 Este -- -- -- 51
2018-06-18 23:00:00 21.8 9 Nordeste 24 Nordeste -- -- -- 49
2018-06-18 22:00:00 22.4 13 Nordeste 24 Este -- -- -- 45
2018-06-18 21:00:00 24.3 14 Este 36 Este -- -- -- 42
2018-06-18 20:00:00 25.8 19 Este 37 Este -- -- -- 41
2018-06-18 19:00:00 28.6 14 Nordeste 35 Nordeste -- -- -- 38
2018-06-18 18:00:00 29.1 14 Nordeste 28 Este -- -- -- 36
2018-06-18 17:00:00 29.7 13 Nordeste 30 Nordeste -- -- -- 36
2018-06-18 16:00:00 30.2 13 Nordeste 31 Este -- -- -- 35
2018-06-18 15:00:00 30 14 Nordeste 35 Este -- -- -- 35
2018-06-18 14:00:00 29.9 14 Nordeste 32 Este -- -- -- 37
2018-06-18 13:00:00 27.9 13 Este 33 Sudeste -- -- -- 38
2018-06-18 12:00:00 26.9 16 Este 32 Nordeste -- -- -- 40
2018-06-18 11:00:00 26.3 14 Este 26 Este -- -- -- 42
2018-06-18 10:00:00 25.7 11 Nordeste 21 Este -- -- -- 44
2018-06-18 09:00:00 24.9 0 Calma 6 Norte -- -- -- 46
2018-06-18 08:00:00 21.2 0 Calma 12 Noroeste -- -- -- 53
2018-06-18 07:00:00 19.2 2 Noroeste 7 Noroeste -- -- -- 55
2018-06-18 06:00:00 18.3 2 Norte 6 Noroeste -- -- -- 56
2018-06-18 05:00:00 19.7 0 Calma 10 Oeste -- -- -- 52
2018-06-18 04:00:00 20.7 0 Calma 10 Oeste -- -- -- 51
2018-06-18 03:00:00 20.4 2 Noroeste 11 Oeste -- -- -- 50
2018-06-18 02:00:00 20 3 Noroeste 9 Oeste -- -- -- 50
2018-06-18 01:00:00 21.1 4 Oeste 10 Oeste -- -- -- 48
2018-06-18 00:00:00 22.2 2 Noroeste 8 Norte -- -- -- 46
2018-06-17 23:00:00 22.6 0 Calma 13 Nordeste -- -- -- 45
2018-06-17 22:00:00 23 5 Nordeste 23 Este -- -- -- 43
2018-06-17 21:00:00 24.4 12 Nordeste 28 Este -- -- -- 41
2018-06-17 20:00:00 25.6 15 Nordeste 38 Este -- -- -- 39
2018-06-17 19:00:00 27.1 15 Nordeste 37 Nordeste -- -- -- 37
2018-06-17 18:00:00 28.4 18 Nordeste 35 Este -- -- -- 35
2018-06-17 17:00:00 28.7 19 Nordeste 35 Este -- -- -- 34
2018-06-17 16:00:00 29.7 14 Nordeste 32 Este -- -- -- 33
2018-06-17 15:00:00 29.6 14 Nordeste 32 Este -- -- -- 33
2018-06-17 14:00:00 28.8 17 Este 31 Nordeste -- -- -- 35
2018-06-17 13:00:00 28 15 Nordeste 31 Este -- -- -- 36
2018-06-17 12:00:00 27.8 12 Nordeste 24 Nordeste -- -- -- 38
2018-06-17 11:00:00 26.1 8 Este 16 Este -- -- -- 41
2018-06-17 10:00:00 24.2 4 Nordeste 11 Este -- -- -- 43
2018-06-17 09:00:00 21.8 0 Calma 5 Nordeste -- -- -- 49
2018-06-17 08:00:00 19.4 0 Calma 6 Noroeste -- -- -- 53
2018-06-17 07:00:00 17.3 0 Calma 3 Nordeste -- -- -- 55
2018-06-17 06:00:00 16.6 0 Calma 5 Oeste -- -- -- 56
2018-06-17 05:00:00 17.2 0 Calma 9 Noroeste -- -- -- 54
2018-06-17 04:00:00 17.8 3 Noroeste 8 Norte -- -- -- 52
2018-06-17 03:00:00 19 0 Calma 5 Noroeste -- -- -- 50
2018-06-17 02:00:00 20.3 0 Calma 9 Noroeste -- -- -- 47
2018-06-17 01:00:00 20.9 2 Noroeste 8 Norte -- -- -- 45
2018-06-17 00:00:00 21.6 0 Calma 6 Nordeste -- -- -- 42